createdAt,value
2022-09-12T03:39:03.599Z,5.30
2022-09-12T03:54:08.196Z,7.97
2022-09-12T04:09:12.540Z,12.63
2022-09-12T04:24:16.836Z,13.57
2022-09-12T04:39:21.238Z,11.10
2022-09-12T04:54:26.218Z,9.77
2022-09-12T05:09:30.685Z,8.50
2022-09-12T05:24:35.399Z,5.03
2022-09-12T05:39:39.871Z,4.27
2022-09-12T05:54:44.299Z,4.37
2022-09-12T06:09:48.659Z,4.30
2022-09-12T06:24:57.758Z,4.00
2022-09-12T06:40:02.592Z,5.57
2022-09-12T06:55:08.253Z,3.83
2022-09-12T07:10:12.883Z,3.33
2022-09-12T07:25:17.413Z,3.73
2022-09-12T07:40:22.968Z,4.30
2022-09-12T07:55:27.501Z,4.30
2022-09-12T08:10:31.988Z,3.80
2022-09-12T08:25:36.328Z,6.20
2022-09-12T08:40:48.838Z,3.73
2022-09-12T08:55:58.373Z,9.50
2022-09-12T09:11:11.176Z,8.17
2022-09-12T09:26:26.403Z,4.40
2022-09-12T09:41:43.631Z,5.10
2022-09-12T09:56:48.170Z,5.53
2022-09-12T10:11:54.008Z,5.23
2022-09-12T10:27:06.755Z,3.70
2022-09-12T10:42:20.318Z,2.60
2022-09-12T10:57:44.034Z,2.90
2022-09-12T11:12:53.761Z,3.10
2022-09-12T11:28:29.405Z,1.40
2022-09-12T11:43:39.802Z,2.37
2022-09-12T11:58:47.267Z,1.47
2022-09-12T12:13:55.371Z,2.90
2022-09-12T12:29:02.844Z,4.07
2022-09-12T12:44:51.192Z,2.77
2022-09-12T12:59:58.942Z,4.23
2022-09-12T13:15:04.574Z,2.03
2022-09-12T13:30:14.665Z,1.30
2022-09-12T13:45:22.680Z,1.50
2022-09-12T14:00:28.234Z,1.37
2022-09-12T14:15:36.923Z,1.03
2022-09-12T14:30:41.419Z,0.67
2022-09-12T14:45:53.012Z,0.57
2022-09-12T15:01:02.932Z,0.50
2022-09-12T15:16:11.398Z,0.40
2022-09-12T15:31:23.364Z,0.43
2022-09-12T15:46:27.834Z,0.30
2022-09-12T16:01:32.356Z,0.20
2022-09-12T16:16:36.934Z,0.50
2022-09-12T16:31:41.452Z,0.50
2022-09-12T16:46:46.125Z,0.60
2022-09-12T17:01:50.595Z,1.03
2022-09-12T17:16:54.983Z,0.70
2022-09-12T17:31:59.380Z,0.63
2022-09-12T17:47:05.336Z,1.23
2022-09-12T18:02:16.166Z,1.97
2022-09-12T18:17:20.835Z,3.10
2022-09-12T18:32:25.304Z,3.80
2022-09-12T18:47:31.196Z,6.57
2022-09-12T19:02:35.723Z,9.53
2022-09-12T19:17:40.061Z,8.13
2022-09-12T19:32:45.575Z,4.60
2022-09-12T19:47:50.019Z,4.80
2022-09-12T20:02:55.300Z,4.10
2022-09-12T20:17:59.689Z,2.57
2022-09-12T20:33:04.062Z,3.80
2022-09-12T20:48:08.386Z,4.40
